sensor_id;sensor_type;location;lat;lon;timestamp;pressure;altitude;pressure_sealevel;temperature;humidity
26823;BME280;14852;51.910;8.878;2023-03-25T00:01:32;98420.91;;;11.81;54.01
26823;BME280;14852;51.910;8.878;2023-03-25T00:04:00;98409.66;;;11.80;54.04
26823;BME280;14852;51.910;8.878;2023-03-25T00:06:29;98406.94;;;11.82;53.69
26823;BME280;14852;51.910;8.878;2023-03-25T00:08:55;98409.56;;;11.82;53.70
26823;BME280;14852;51.910;8.878;2023-03-25T00:11:22;98401.75;;;11.82;53.51
26823;BME280;14852;51.910;8.878;2023-03-25T00:13:48;98401.41;;;11.86;53.61
26823;BME280;14852;51.910;8.878;2023-03-25T00:16:14;98400.06;;;11.92;53.75
26823;BME280;14852;51.910;8.878;2023-03-25T00:18:43;98401.59;;;11.94;53.56
26823;BME280;14852;51.910;8.878;2023-03-25T00:21:09;98405.88;;;11.95;53.30
26823;BME280;14852;51.910;8.878;2023-03-25T00:23:38;98405.75;;;11.97;53.37
26823;BME280;14852;51.910;8.878;2023-03-25T00:26:05;98414.81;;;12.03;53.01
26823;BME280;14852;51.910;8.878;2023-03-25T00:28:34;98405.13;;;12.05;53.32
26823;BME280;14852;51.910;8.878;2023-03-25T00:31:21;98402.16;;;12.09;53.05
26823;BME280;14852;51.910;8.878;2023-03-25T00:33:46;98390.53;;;12.13;53.24
26823;BME280;14852;51.910;8.878;2023-03-25T00:36:15;98400.72;;;12.16;53.14
26823;BME280;14852;51.910;8.878;2023-03-25T00:38:42;98404.16;;;12.17;53.01
26823;BME280;14852;51.910;8.878;2023-03-25T00:41:19;98407.69;;;12.16;53.62
26823;BME280;14852;51.910;8.878;2023-03-25T00:43:52;98411.97;;;12.17;53.50
26823;BME280;14852;51.910;8.878;2023-03-25T00:46:19;98413.63;;;12.18;53.30
26823;BME280;14852;51.910;8.878;2023-03-25T00:48:47;98407.34;;;12.20;53.08
26823;BME280;14852;51.910;8.878;2023-03-25T00:51:13;98403.91;;;12.20;53.50
26823;BME280;14852;51.910;8.878;2023-03-25T00:53:45;98407.91;;;12.24;53.13
26823;BME280;14852;51.910;8.878;2023-03-25T00:56:11;98404.47;;;12.23;53.30
26823;BME280;14852;51.910;8.878;2023-03-25T00:58:37;98402.00;;;12.22;53.50
26823;BME280;14852;51.910;8.878;2023-03-25T01:01:18;98403.06;;;12.19;53.52
26823;BME280;14852;51.910;8.878;2023-03-25T01:03:49;98400.59;;;12.18;53.73
26823;BME280;14852;51.910;8.878;2023-03-25T01:06:28;98414.69;;;12.15;53.98
26823;BME280;14852;51.910;8.878;2023-03-25T01:08:58;98402.72;;;12.13;53.76
26823;BME280;14852;51.910;8.878;2023-03-25T01:11:28;98409.16;;;12.09;54.15
26823;BME280;14852;51.910;8.878;2023-03-25T01:13:56;98403.34;;;12.05;53.94
26823;BME280;14852;51.910;8.878;2023-03-25T01:16:25;98407.97;;;12.02;54.28
26823;BME280;14852;51.910;8.878;2023-03-25T01:18:51;98401.09;;;12.01;54.59
26823;BME280;14852;51.910;8.878;2023-03-25T01:21:17;98405.63;;;11.99;54.12
26823;BME280;14852;51.910;8.878;2023-03-25T01:23:43;98402.44;;;11.95;54.24
26823;BME280;14852;51.910;8.878;2023-03-25T01:26:09;98411.19;;;11.94;54.62
26823;BME280;14852;51.910;8.878;2023-03-25T01:28:40;98407.75;;;11.93;54.71
26823;BME280;14852;51.910;8.878;2023-03-25T01:31:09;98402.53;;;11.93;54.36
26823;BME280;14852;51.910;8.878;2023-03-25T01:33:35;98406.94;;;11.93;54.48
26823;BME280;14852;51.910;8.878;2023-03-25T01:36:02;98404.31;;;11.93;54.42
26823;BME280;14852;51.910;8.878;2023-03-25T01:38:29;98401.13;;;11.89;54.82
26823;BME280;14852;51.910;8.878;2023-03-25T01:40:56;98412.63;;;11.87;54.74
26823;BME280;14852;51.910;8.878;2023-03-25T01:43:22;98396.41;;;11.83;55.19
26823;BME280;14852;51.910;8.878;2023-03-25T01:45:49;98399.84;;;11.84;55.08
26823;BME280;14852;51.910;8.878;2023-03-25T01:48:32;98397.13;;;11.85;54.62
26823;BME280;14852;51.910;8.878;2023-03-25T01:51:19;98412.63;;;11.87;54.51
26823;BME280;14852;51.910;8.878;2023-03-25T01:53:47;98403.16;;;11.86;54.49
26823;BME280;14852;51.910;8.878;2023-03-25T01:56:19;98396.19;;;11.86;54.94
26823;BME280;14852;51.910;8.878;2023-03-25T01:58:47;98410.03;;;11.87;54.73
26823;BME280;14852;51.910;8.878;2023-03-25T02:01:16;98395.47;;;11.84;54.77
26823;BME280;14852;51.910;8.878;2023-03-25T02:03:48;98395.34;;;11.86;54.64
26823;BME280;14852;51.910;8.878;2023-03-25T02:06:45;98391.34;;;11.82;54.96
26823;BME280;14852;51.910;8.878;2023-03-25T02:09:17;98396.41;;;11.83;54.75
26823;BME280;14852;51.910;8.878;2023-03-25T02:11:43;98396.41;;;11.83;54.83
26823;BME280;14852;51.910;8.878;2023-03-25T02:14:14;98396.66;;;11.80;54.43
26823;BME280;14852;51.910;8.878;2023-03-25T02:23:26;98375.47;;;11.74;54.86
26823;BME280;14852;51.910;8.878;2023-03-25T02:28:52;98374.75;;;11.72;54.93
26823;BME280;14852;51.910;8.878;2023-03-25T02:40:04;98365.09;;;11.63;55.01
26823;BME280;14852;51.910;8.878;2023-03-25T02:42:53;98372.91;;;11.63;55.06
26823;BME280;14852;51.910;8.878;2023-03-25T02:45:35;98365.91;;;11.63;55.01
26823;BME280;14852;51.910;8.878;2023-03-25T02:48:17;98374.56;;;11.64;55.04
26823;BME280;14852;51.910;8.878;2023-03-25T02:50:49;98359.06;;;11.62;54.80
26823;BME280;14852;51.910;8.878;2023-03-25T02:53:29;98367.69;;;11.63;54.87
26823;BME280;14852;51.910;8.878;2023-03-25T02:56:02;98353.03;;;11.61;54.66
26823;BME280;14852;51.910;8.878;2023-03-25T02:58:30;98354.44;;;11.54;55.00
26823;BME280;14852;51.910;8.878;2023-03-25T03:00:57;98358.34;;;11.49;55.46
26823;BME280;14852;51.910;8.878;2023-03-25T03:03:27;98359.41;;;11.46;55.73
26823;BME280;14852;51.910;8.878;2023-03-25T03:06:00;98356.94;;;11.45;55.89
26823;BME280;14852;51.910;8.878;2023-03-25T03:08:59;98355.28;;;11.44;55.83
26823;BME280;14852;51.910;8.878;2023-03-25T03:12:10;98347.59;;;11.42;56.15
26823;BME280;14852;51.910;8.878;2023-03-25T03:15:05;98348.91;;;11.37;56.41
26823;BME280;14852;51.910;8.878;2023-03-25T03:20:44;98353.88;;;11.40;55.96
26823;BME280;14852;51.910;8.878;2023-03-25T03:23:45;98360.03;;;11.39;56.17
26823;BME280;14852;51.910;8.878;2023-03-25T03:29:31;98346.44;;;11.35;56.66
26823;BME280;14852;51.910;8.878;2023-03-25T03:32:28;98348.09;;;11.36;56.27
26823;BME280;14852;51.910;8.878;2023-03-25T03:35:13;98349.03;;;11.35;56.53
26823;BME280;14852;51.910;8.878;2023-03-25T03:37:46;98340.50;;;11.33;56.68
26823;BME280;14852;51.910;8.878;2023-03-25T03:40:20;98348.19;;;11.35;56.50
26823;BME280;14852;51.910;8.878;2023-03-25T03:45:43;98360.59;;;11.31;56.76
26823;BME280;14852;51.910;8.878;2023-03-25T03:48:33;98355.28;;;11.33;56.51
26823;BME280;14852;51.910;8.878;2023-03-25T03:51:11;98357.88;;;11.33;56.46
26823;BME280;14852;51.910;8.878;2023-03-25T03:53:43;98362.97;;;11.34;56.73
26823;BME280;14852;51.910;8.878;2023-03-25T03:56:21;98361.19;;;11.35;56.66
26823;BME280;14852;51.910;8.878;2023-03-25T03:58:51;98368.16;;;11.34;56.88
26823;BME280;14852;51.910;8.878;2023-03-25T04:01:26;98363.09;;;11.33;56.73
26823;BME280;14852;51.910;8.878;2023-03-25T04:04:09;98368.06;;;11.36;56.90
26823;BME280;14852;51.910;8.878;2023-03-25T04:06:51;98360.13;;;11.37;56.60
26823;BME280;14852;51.910;8.878;2023-03-25T04:09:50;98353.16;;;11.38;56.93
26823;BME280;14852;51.910;8.878;2023-03-25T04:12:27;98346.44;;;11.35;57.12
26823;BME280;14852;51.910;8.878;2023-03-25T04:14:55;98363.91;;;11.33;56.85
26823;BME280;14852;51.910;8.878;2023-03-25T04:17:22;98350.09;;;11.33;56.74
26823;BME280;14852;51.910;8.878;2023-03-25T04:19:49;98361.31;;;11.33;56.48
26823;BME280;14852;51.910;8.878;2023-03-25T04:22:18;98352.00;;;11.31;56.62
26823;BME280;14852;51.910;8.878;2023-03-25T04:24:45;98341.84;;;11.28;56.65
26823;BME280;14852;51.910;8.878;2023-03-25T04:27:18;98342.78;;;11.27;56.63
26823;BME280;14852;51.910;8.878;2023-03-25T04:29:44;98361.19;;;11.23;57.03
26823;BME280;14852;51.910;8.878;2023-03-25T04:32:12;98358.72;;;11.22;56.54
26823;BME280;14852;51.910;8.878;2023-03-25T04:34:39;98359.78;;;11.19;56.45
26823;BME280;14852;51.910;8.878;2023-03-25T04:37:05;98370.44;;;11.16;56.93
26823;BME280;14852;51.910;8.878;2023-03-25T04:39:30;98367.22;;;11.13;56.59
26823;BME280;14852;51.910;8.878;2023-03-25T04:41:58;98358.59;;;11.12;56.78
26823;BME280;14852;51.910;8.878;2023-03-25T04:44:30;98376.56;;;11.15;57.01
26823;BME280;14852;51.910;8.878;2023-03-25T04:46:59;98368.53;;;11.18;56.47
26823;BME280;14852;51.910;8.878;2023-03-25T04:49:26;98375.97;;;11.23;56.69
26823;BME280;14852;51.910;8.878;2023-03-25T04:51:53;98372.22;;;11.27;56.40
26823;BME280;14852;51.910;8.878;2023-03-25T04:54:20;98373.03;;;11.28;56.16
26823;BME280;14852;51.910;8.878;2023-03-25T04:56:47;98374.56;;;11.30;56.49
26823;BME280;14852;51.910;8.878;2023-03-25T04:59:15;98370.22;;;11.31;56.35
26823;BME280;14852;51.910;8.878;2023-03-25T05:01:41;98370.88;;;11.33;56.44
26823;BME280;14852;51.910;8.878;2023-03-25T05:04:11;98380.22;;;11.35;56.01
26823;BME280;14852;51.910;8.878;2023-03-25T05:06:41;98379.19;;;11.38;56.26
26823;BME280;14852;51.910;8.878;2023-03-25T05:09:11;98365.22;;;11.39;55.94
26823;BME280;14852;51.910;8.878;2023-03-25T05:11:39;98367.00;;;11.38;56.23
26823;BME280;14852;51.910;8.878;2023-03-25T05:14:10;98369.38;;;11.41;55.65
26823;BME280;14852;51.910;8.878;2023-03-25T05:16:36;98371.00;;;11.42;55.80
26823;BME280;14852;51.910;8.878;2023-03-25T05:19:03;98365.94;;;11.41;55.97
26823;BME280;14852;51.910;8.878;2023-03-25T05:21:32;98379.63;;;11.43;55.86
26823;BME280;14852;51.910;8.878;2023-03-25T05:24:01;98383.88;;;11.44;56.18
26823;BME280;14852;51.910;8.878;2023-03-25T05:26:27;98370.19;;;11.42;55.87
26823;BME280;14852;51.910;8.878;2023-03-25T05:29:11;98371.00;;;11.42;56.24
26823;BME280;14852;51.910;8.878;2023-03-25T05:31:42;98378.13;;;11.40;56.23
26823;BME280;14852;51.910;8.878;2023-03-25T05:34:11;98381.41;;;11.42;55.83
26823;BME280;14852;51.910;8.878;2023-03-25T05:36:39;98379.63;;;11.43;55.93
26823;BME280;14852;51.910;8.878;2023-03-25T05:39:04;98382.94;;;11.45;56.04
26823;BME280;14852;51.910;8.878;2023-03-25T05:41:30;98376.91;;;11.44;55.99
26823;BME280;14852;51.910;8.878;2023-03-25T05:44:05;98382.81;;;11.46;55.99
26823;BME280;14852;51.910;8.878;2023-03-25T05:46:31;98365.44;;;11.47;55.73
26823;BME280;14852;51.910;8.878;2023-03-25T05:48:57;98380.00;;;11.49;56.13
26823;BME280;14852;51.910;8.878;2023-03-25T05:51:26;98357.03;;;11.54;55.68
26823;BME280;14852;51.910;8.878;2023-03-25T05:53:52;98381.53;;;11.52;55.78
26823;BME280;14852;51.910;8.878;2023-03-25T05:56:21;98387.69;;;11.51;55.97
26823;BME280;14852;51.910;8.878;2023-03-25T05:58:49;98386.63;;;11.53;55.88
26823;BME280;14852;51.910;8.878;2023-03-25T06:01:19;98399.47;;;11.55;56.20
26823;BME280;14852;51.910;8.878;2023-03-25T06:03:45;98385.66;;;11.54;55.92
26823;BME280;14852;51.910;8.878;2023-03-25T06:06:12;98389.91;;;11.55;55.71
26823;BME280;14852;51.910;8.878;2023-03-25T06:08:43;98391.56;;;11.56;55.90
26823;BME280;14852;51.910;8.878;2023-03-25T06:11:09;98385.41;;;11.57;55.65
26823;BME280;14852;51.910;8.878;2023-03-25T06:13:39;98396.41;;;11.61;56.07
26823;BME280;14852;51.910;8.878;2023-03-25T06:16:07;98395.94;;;11.67;56.00
26823;BME280;14852;51.910;8.878;2023-03-25T06:18:37;98394.03;;;11.69;55.80
26823;BME280;14852;51.910;8.878;2023-03-25T06:21:03;98388.00;;;11.69;56.02
26823;BME280;14852;51.910;8.878;2023-03-25T06:23:30;98391.22;;;11.72;55.70
26823;BME280;14852;51.910;8.878;2023-03-25T06:26:00;98383.88;;;11.77;55.68
26823;BME280;14852;51.910;8.878;2023-03-25T06:28:26;98388.28;;;11.77;55.92
26823;BME280;14852;51.910;8.878;2023-03-25T06:30:52;98382.34;;;11.75;55.48
26823;BME280;14852;51.910;8.878;2023-03-25T06:33:18;98399.84;;;11.73;55.81
26823;BME280;14852;51.910;8.878;2023-03-25T06:35:47;98392.75;;;11.75;55.95
26823;BME280;14852;51.910;8.878;2023-03-25T06:38:20;98395.34;;;11.97;55.53
26823;BME280;14852;51.910;8.878;2023-03-25T06:41:01;98396.22;;;12.18;55.22
26823;BME280;14852;51.910;8.878;2023-03-25T06:43:27;98406.75;;;12.17;54.88
26823;BME280;14852;51.910;8.878;2023-03-25T06:46:22;98399.81;;;12.06;54.92
26823;BME280;14852;51.910;8.878;2023-03-25T06:49:07;98403.16;;;11.97;55.62
26823;BME280;14852;51.910;8.878;2023-03-25T06:51:33;98404.19;;;11.94;55.82
26823;BME280;14852;51.910;8.878;2023-03-25T06:53:59;98401.00;;;11.91;55.50
26823;BME280;14852;51.910;8.878;2023-03-25T06:56:25;98402.06;;;11.88;55.74
26823;BME280;14852;51.910;8.878;2023-03-25T06:58:51;98407.75;;;11.93;55.49
26823;BME280;14852;51.910;8.878;2023-03-25T07:01:17;98404.69;;;11.88;55.42
26823;BME280;14852;51.910;8.878;2023-03-25T07:03:42;98414.88;;;11.80;55.71
26823;BME280;14852;51.910;8.878;2023-03-25T07:06:16;98418.28;;;11.70;56.48
26823;BME280;14852;51.910;8.878;2023-03-25T07:08:42;98416.28;;;11.62;56.60
26823;BME280;14852;51.910;8.878;2023-03-25T07:11:09;98421.59;;;11.60;56.63
26823;BME280;14852;51.910;8.878;2023-03-25T07:13:35;98426.22;;;11.57;56.50
26823;BME280;14852;51.910;8.878;2023-03-25T07:16:01;98424.66;;;11.54;56.70
26823;BME280;14852;51.910;8.878;2023-03-25T07:18:27;98414.25;;;11.54;56.67
26823;BME280;14852;51.910;8.878;2023-03-25T07:20:53;98405.91;;;11.51;56.58
26823;BME280;14852;51.910;8.878;2023-03-25T07:23:19;98413.81;;;11.49;56.83
26823;BME280;14852;51.910;8.878;2023-03-25T07:25:45;98409.44;;;11.50;56.90
26823;BME280;14852;51.910;8.878;2023-03-25T07:28:11;98424.31;;;11.48;57.19
26823;BME280;14852;51.910;8.878;2023-03-25T07:30:43;98414.25;;;11.43;57.34
26823;BME280;14852;51.910;8.878;2023-03-25T07:33:08;98407.19;;;11.45;57.13
26823;BME280;14852;51.910;8.878;2023-03-25T07:35:34;98406.00;;;11.49;57.26
26823;BME280;14852;51.910;8.878;2023-03-25T07:38:00;98411.31;;;11.48;57.19
26823;BME280;14852;51.910;8.878;2023-03-25T07:40:26;98414.63;;;11.50;57.23
26823;BME280;14852;51.910;8.878;2023-03-25T07:42:52;98404.94;;;11.52;57.01
26823;BME280;14852;51.910;8.878;2023-03-25T07:45:22;98410.50;;;11.47;57.61
26823;BME280;14852;51.910;8.878;2023-03-25T07:47:50;98401.03;;;11.46;57.28
26823;BME280;14852;51.910;8.878;2023-03-25T07:50:19;98406.59;;;11.53;57.48
26823;BME280;14852;51.910;8.878;2023-03-25T07:52:46;98416.06;;;11.65;57.19
26823;BME280;14852;51.910;8.878;2023-03-25T07:55:12;98420.66;;;11.73;56.97
26823;BME280;14852;51.910;8.878;2023-03-25T07:57:39;98401.28;;;11.77;57.00
26823;BME280;14852;51.910;8.878;2023-03-25T08:00:08;98408.09;;;11.89;57.06
26823;BME280;14852;51.910;8.878;2023-03-25T08:02:38;98405.91;;;12.16;56.28
26823;BME280;14852;51.910;8.878;2023-03-25T08:05:05;98409.00;;;12.21;56.56
26823;BME280;14852;51.910;8.878;2023-03-25T08:07:32;98408.25;;;12.30;56.36
26823;BME280;14852;51.910;8.878;2023-03-25T08:09:58;98421.09;;;12.11;56.80
26823;BME280;14852;51.910;8.878;2023-03-25T08:12:23;98409.63;;;12.03;57.02
26823;BME280;14852;51.910;8.878;2023-03-25T08:14:49;98418.50;;;12.00;56.85
26823;BME280;14852;51.910;8.878;2023-03-25T08:17:15;98418.66;;;11.99;56.97
26823;BME280;14852;51.910;8.878;2023-03-25T08:19:41;98420.16;;;12.01;56.92
26823;BME280;14852;51.910;8.878;2023-03-25T08:22:07;98430.44;;;12.03;57.02
26823;BME280;14852;51.910;8.878;2023-03-25T08:24:36;98419.91;;;12.04;57.15
26823;BME280;14852;51.910;8.878;2023-03-25T08:27:01;98429.97;;;12.09;56.76
26823;BME280;14852;51.910;8.878;2023-03-25T08:29:28;98424.25;;;12.15;56.90
26823;BME280;14852;51.910;8.878;2023-03-25T08:31:54;98423.41;;;12.25;56.63
26823;BME280;14852;51.910;8.878;2023-03-25T08:34:21;98429.03;;;12.74;55.77
26823;BME280;14852;51.910;8.878;2023-03-25T08:36:47;98440.84;;;13.70;53.36
26823;BME280;14852;51.910;8.878;2023-03-25T08:39:14;98410.75;;;14.26;52.13
26823;BME280;14852;51.910;8.878;2023-03-25T08:41:43;98397.50;;;14.08;52.68
26823;BME280;14852;51.910;8.878;2023-03-25T08:44:10;98416.47;;;14.10;52.94
26823;BME280;14852;51.910;8.878;2023-03-25T08:46:36;98403.03;;;14.34;52.61
26823;BME280;14852;51.910;8.878;2023-03-25T08:49:03;98391.19;;;15.44;51.16
26823;BME280;14852;51.910;8.878;2023-03-25T08:51:29;98393.88;;;16.34;48.71
26823;BME280;14852;51.910;8.878;2023-03-25T08:53:55;98396.06;;;17.00;47.00
26823;BME280;14852;51.910;8.878;2023-03-25T08:56:21;98397.03;;;17.25;46.39
26823;BME280;14852;51.910;8.878;2023-03-25T08:58:46;98416.84;;;16.93;47.30
26823;BME280;14852;51.910;8.878;2023-03-25T09:01:12;98407.25;;;16.31;48.34
26823;BME280;14852;51.910;8.878;2023-03-25T09:03:38;98415.13;;;15.58;49.61
26823;BME280;14852;51.910;8.878;2023-03-25T09:06:07;98424.75;;;15.02;50.30
26823;BME280;14852;51.910;8.878;2023-03-25T09:08:33;98419.31;;;14.57;51.96
26823;BME280;14852;51.910;8.878;2023-03-25T09:11:04;98410.88;;;14.34;51.96
26823;BME280;14852;51.910;8.878;2023-03-25T09:13:30;98413.19;;;14.08;52.39
26823;BME280;14852;51.910;8.878;2023-03-25T09:15:57;98413.16;;;13.98;52.37
26823;BME280;14852;51.910;8.878;2023-03-25T09:18:23;98429.63;;;13.89;52.72
26823;BME280;14852;51.910;8.878;2023-03-25T09:20:49;98434.25;;;13.76;52.39
26823;BME280;14852;51.910;8.878;2023-03-25T09:23:16;98440.44;;;13.75;52.64
26823;BME280;14852;51.910;8.878;2023-03-25T09:25:42;98444.81;;;13.65;52.68
26823;BME280;14852;51.910;8.878;2023-03-25T09:28:08;98436.44;;;13.61;53.23
26823;BME280;14852;51.910;8.878;2023-03-25T09:30:34;98451.50;;;13.98;52.54
26823;BME280;14852;51.910;8.878;2023-03-25T09:33:00;98426.53;;;14.05;52.39
26823;BME280;14852;51.910;8.878;2023-03-25T09:35:26;98433.66;;;14.03;51.99
26823;BME280;14852;51.910;8.878;2023-03-25T09:37:52;98454.53;;;13.93;52.36
26823;BME280;14852;51.910;8.878;2023-03-25T09:40:19;98444.19;;;13.82;52.63
26823;BME280;14852;51.910;8.878;2023-03-25T09:43:38;98450.66;;;13.88;52.39
26823;BME280;14852;51.910;8.878;2023-03-25T09:46:13;98435.44;;;13.93;52.02
26823;BME280;14852;51.910;8.878;2023-03-25T09:48:45;98442.47;;;14.02;51.23
26823;BME280;14852;51.910;8.878;2023-03-25T09:51:33;98446.34;;;14.07;51.47
26823;BME280;14852;51.910;8.878;2023-03-25T09:54:29;98435.81;;;14.47;51.22
26823;BME280;14852;51.910;8.878;2023-03-25T09:57:01;98430.44;;;14.68;50.74
26823;BME280;14852;51.910;8.878;2023-03-25T09:59:44;98431.41;;;14.96;50.52
26823;BME280;14852;51.910;8.878;2023-03-25T10:02:53;98425.16;;;15.16;49.96
26823;BME280;14852;51.910;8.878;2023-03-25T10:06:18;98433.41;;;15.21;50.21
26823;BME280;14852;51.910;8.878;2023-03-25T10:12:50;98422.88;;;15.41;49.30
26823;BME280;14852;51.910;8.878;2023-03-25T10:18:28;98424.72;;;15.31;48.68
26823;BME280;14852;51.910;8.878;2023-03-25T10:24:15;98433.75;;;14.70;49.42
26823;BME280;14852;51.910;8.878;2023-03-25T10:26:54;98427.41;;;14.44;50.05
26823;BME280;14852;51.910;8.878;2023-03-25T10:29:38;98424.28;;;14.50;50.23
26823;BME280;14852;51.910;8.878;2023-03-25T10:32:24;98434.16;;;14.66;50.27
26823;BME280;14852;51.910;8.878;2023-03-25T10:34:53;98438.16;;;14.70;49.61
26823;BME280;14852;51.910;8.878;2023-03-25T10:37:34;98436.63;;;14.67;49.03
26823;BME280;14852;51.910;8.878;2023-03-25T10:40:28;98427.31;;;14.65;49.26
26823;BME280;14852;51.910;8.878;2023-03-25T10:43:38;98431.84;;;14.63;48.91
26823;BME280;14852;51.910;8.878;2023-03-25T10:46:29;98421.50;;;14.61;48.92
26823;BME280;14852;51.910;8.878;2023-03-25T10:48:56;98421.09;;;14.75;48.60
26823;BME280;14852;51.910;8.878;2023-03-25T10:51:30;98429.47;;;14.89;48.84
26823;BME280;14852;51.910;8.878;2023-03-25T10:53:57;98416.00;;;14.74;48.71
26823;BME280;14852;51.910;8.878;2023-03-25T10:56:25;98429.09;;;14.64;49.41
26823;BME280;14852;51.910;8.878;2023-03-25T10:58:57;98431.03;;;14.53;49.81
26823;BME280;14852;51.910;8.878;2023-03-25T11:01:34;98444.06;;;14.43;49.67
26823;BME280;14852;51.910;8.878;2023-03-25T11:04:02;98434.41;;;14.34;49.79
26823;BME280;14852;51.910;8.878;2023-03-25T11:06:32;98440.34;;;14.45;49.86
26823;BME280;14852;51.910;8.878;2023-03-25T11:11:48;98425.78;;;14.62;49.43
26823;BME280;14852;51.910;8.878;2023-03-25T11:14:15;98420.94;;;14.77;49.75
26823;BME280;14852;51.910;8.878;2023-03-25T11:17:00;98423.09;;;15.01;49.08
26823;BME280;14852;51.910;8.878;2023-03-25T11:22:17;98401.13;;;15.40;48.17
26823;BME280;14852;51.910;8.878;2023-03-25T11:24:48;98421.66;;;15.35;48.53
26823;BME280;14852;51.910;8.878;2023-03-25T11:27:22;98419.72;;;15.37;49.07
26823;BME280;14852;51.910;8.878;2023-03-25T11:29:56;98415.38;;;15.18;48.54
26823;BME280;14852;51.910;8.878;2023-03-25T11:32:33;98435.81;;;14.96;48.76
26823;BME280;14852;51.910;8.878;2023-03-25T11:35:15;98435.50;;;14.89;49.19
26823;BME280;14852;51.910;8.878;2023-03-25T11:37:47;98442.16;;;14.83;49.32
26823;BME280;14852;51.910;8.878;2023-03-25T11:40:18;98442.84;;;14.76;49.62
26823;BME280;14852;51.910;8.878;2023-03-25T11:42:55;98419.59;;;14.73;49.68
26823;BME280;14852;51.910;8.878;2023-03-25T11:45:32;98425.34;;;14.67;49.77
26823;BME280;14852;51.910;8.878;2023-03-25T11:48:09;98432.78;;;14.71;49.71
26823;BME280;14852;51.910;8.878;2023-03-25T11:50:36;98422.59;;;14.88;49.56
26823;BME280;14852;51.910;8.878;2023-03-25T11:53:03;98418.56;;;15.03;49.14
26823;BME280;14852;51.910;8.878;2023-03-25T11:55:41;98406.28;;;15.13;49.20
26823;BME280;14852;51.910;8.878;2023-03-25T11:58:15;98409.38;;;15.36;48.93
26823;BME280;14852;51.910;8.878;2023-03-25T12:00:50;98411.84;;;15.56;48.63
26823;BME280;14852;51.910;8.878;2023-03-25T12:03:21;98414.94;;;15.70;48.16
26823;BME280;14852;51.910;8.878;2023-03-25T12:05:59;98413.97;;;15.71;48.63
26823;BME280;14852;51.910;8.878;2023-03-25T12:08:31;98416.44;;;15.72;48.11
26823;BME280;14852;51.910;8.878;2023-03-25T12:17:04;98426.81;;;15.64;48.64
26823;BME280;14852;51.910;8.878;2023-03-25T12:20:25;98419.50;;;15.68;48.97
26823;BME280;14852;51.910;8.878;2023-03-25T12:35:00;98402.94;;;15.30;48.88
26823;BME280;14852;51.910;8.878;2023-03-25T12:43:21;98379.78;;;14.98;49.55
26823;BME280;14852;51.910;8.878;2023-03-25T12:46:15;98389.25;;;15.09;49.54
26823;BME280;14852;51.910;8.878;2023-03-25T12:58:36;98394.69;;;14.59;50.53
26823;BME280;14852;51.910;8.878;2023-03-25T13:01:27;98387.09;;;14.56;50.84
26823;BME280;14852;51.910;8.878;2023-03-25T13:07:16;98398.13;;;14.50;50.61
26823;BME280;14852;51.910;8.878;2023-03-25T13:10:10;98402.25;;;14.43;50.83
26823;BME280;14852;51.910;8.878;2023-03-25T13:15:24;98407.19;;;14.46;50.85
26823;BME280;14852;51.910;8.878;2023-03-25T13:18:10;98400.47;;;14.63;50.95
26823;BME280;14852;51.910;8.878;2023-03-25T13:23:33;98399.06;;;14.68;51.06
26823;BME280;14852;51.910;8.878;2023-03-25T13:26:20;98398.81;;;14.52;51.71
26823;BME280;14852;51.910;8.878;2023-03-25T13:28:52;98394.09;;;14.36;51.95
26823;BME280;14852;51.910;8.878;2023-03-25T13:31:30;98396.97;;;14.33;51.74
26823;BME280;14852;51.910;8.878;2023-03-25T13:34:26;98394.25;;;14.35;51.99
26823;BME280;14852;51.910;8.878;2023-03-25T13:40:02;98389.97;;;14.24;52.32
26823;BME280;14852;51.910;8.878;2023-03-25T13:43:19;98388.75;;;14.19;52.53
26823;BME280;14852;51.910;8.878;2023-03-25T13:46:05;98392.13;;;14.00;52.75
26823;BME280;14852;51.910;8.878;2023-03-25T13:51:36;98413.56;;;13.84;53.07
26823;BME280;14852;51.910;8.878;2023-03-25T14:08:34;98389.94;;;13.46;53.70
26823;BME280;14852;51.910;8.878;2023-03-25T14:14:15;98403.03;;;13.65;53.80
26823;BME280;14852;51.910;8.878;2023-03-25T14:16:52;98401.03;;;13.78;53.44
26823;BME280;14852;51.910;8.878;2023-03-25T14:19:29;98411.72;;;13.75;53.46
26823;BME280;14852;51.910;8.878;2023-03-25T14:21:56;98403.38;;;13.81;53.39
26823;BME280;14852;51.910;8.878;2023-03-25T14:24:34;98406.00;;;13.81;53.35
26823;BME280;14852;51.910;8.878;2023-03-25T14:27:03;98412.84;;;13.72;54.07
26823;BME280;14852;51.910;8.878;2023-03-25T14:29:39;98404.81;;;13.64;53.83
26823;BME280;14852;51.910;8.878;2023-03-25T14:34:35;98401.69;;;13.61;54.33
26823;BME280;14852;51.910;8.878;2023-03-25T14:44:39;98378.69;;;14.04;53.22
26823;BME280;14852;51.910;8.878;2023-03-25T14:52:59;98358.75;;;14.23;52.89
26823;BME280;14852;51.910;8.878;2023-03-25T14:55:45;98355.59;;;14.19;52.92
26823;BME280;14852;51.910;8.878;2023-03-25T14:58:22;98366.84;;;14.20;52.83
26823;BME280;14852;51.910;8.878;2023-03-25T15:01:01;98353.53;;;14.23;52.83
26823;BME280;14852;51.910;8.878;2023-03-25T15:03:35;98350.91;;;14.23;52.57
26823;BME280;14852;51.910;8.878;2023-03-25T15:06:03;98368.94;;;14.26;52.12
26823;BME280;14852;51.910;8.878;2023-03-25T15:08:38;98356.97;;;14.23;52.61
26823;BME280;14852;51.910;8.878;2023-03-25T15:11:14;98354.91;;;14.17;52.07
26823;BME280;14852;51.910;8.878;2023-03-25T15:13:47;98351.06;;;14.11;52.17
26823;BME280;14852;51.910;8.878;2023-03-25T15:19:12;98368.38;;;14.03;52.13
26823;BME280;14852;51.910;8.878;2023-03-25T15:24:37;98378.25;;;13.99;52.05
26823;BME280;14852;51.910;8.878;2023-03-25T15:27:40;98359.56;;;13.94;52.27
26823;BME280;14852;51.910;8.878;2023-03-25T15:36:47;98356.22;;;13.73;52.20
26823;BME280;14852;51.910;8.878;2023-03-25T15:39:44;98361.44;;;13.73;52.26
26823;BME280;14852;51.910;8.878;2023-03-25T15:45:35;98376.00;;;13.66;52.93
26823;BME280;14852;51.910;8.878;2023-03-25T15:48:25;98390.50;;;13.49;53.85
26823;BME280;14852;51.910;8.878;2023-03-25T15:51:43;98393.22;;;13.38;53.90